This demonstration page uses our WeatherBlox Daily Observations layout. Learn more.

38.88101, -77.10428

Hourly Observations for October 30, 2016

Temp ( °F °C ) Dew Point ( °F °C ) Humidity (%) Winds ( mph kmh ) Pressure ( in mb ) Visibility ( mi km ) Precip ( " mm )
12:52 am 00:52 Mostly Cloudy 61 16.1 57 13.9 87 87 S 8 13 30.03 1017 10 16.09344 0 0
1:52 am 01:52 Mostly Cloudy 61 16.1 58 14.4 90 90 S 9 15 30 1016 10 16.09344 0 0
2:52 am 02:52 Mostly Cloudy 60 15.6 58 14.4 93 93 S 8 13 30 1016 10 16.09344 0 0
3:52 am 03:52 Mostly Cloudy 61 16.1 58 14.4 90 90 S 10 17 30 1016 10 16.09344 0 0
4:52 am 04:52 Mostly Cloudy 61 16.1 58 14.4 90 90 S 8 13 30 1016 10 16.09344 0 0
5:52 am 05:52 Mostly Cloudy 59 15 57 13.9 93 93 SSW 6 9 30 1016 10 16.09344 0 0
6:52 am 06:52 Mostly Cloudy 59 15 57 13.9 93 93 SSW 5 7 30 1016 10 16.09344 0 0
7:52 am 07:52 Mostly Cloudy 60 15.6 57 13.9 90 90 S 5 7 30 1016 10 16.09344 0 0
8:52 am 08:52 Mostly Cloudy 61 16.1 58 14.4 90 90 S 5 7 30 1016 10 16.09344 0 0
9:52 am 09:52 Mostly Cloudy 62 16.7 58 14.4 86 86 S 8 13 30 1016 10 16.09344 0 0
10:52 am 10:52 Mostly Cloudy 64 17.8 59 15 84 84 S 12 19 29.97 1015 10 16.09344 0 0
11:52 am 11:52 Mostly Cloudy 68 20 59 15 73 73 S 10 17 29.97 1015 10 16.09344 0 0
12:52 pm 12:52 Sunny 72 22.2 60 15.6 66 66 S 10 17 29.94 1014 10 16.09344 0 0
1:52 pm 13:52 Mostly Cloudy 76 24.4 60 15.6 58 58 S 12 19 29.91 1013 10 16.09344 0 0
2:52 pm 14:52 Partly Cloudy 78 25.6 60 15.6 54 54 S 12 19 29.88 1012 10 16.09344 0 0
3:52 pm 15:52 Partly Cloudy 75 23.9 61 16.1 62 62 S 17 28 29.85 1011 10 16.09344 0 0
4:52 pm 16:52 Mostly Cloudy 79 26.1 57 13.9 47 47 SSW 9 15 29.83 1010 10 16.09344 0 0
5:52 pm 17:52 Mostly Cloudy 77 25 57 13.9 50 50 SSW 12 19 29.85 1011 10 16.09344 0 0
6:19 pm 18:19 Mostly Cloudy 77 25 58 14.4 52 52 W 14 22 29.91 1013 10 16.09344 0 0
6:28 pm 18:28 Cloudy with Light Rain 72 22 59 15 65 65 NW 23 37 29.91 1013 7 11.265408 0 0
6:39 pm 18:39 Cloudy with Light Rain 69 20.6 60 15.6 73 73 NNW 15 24 29.94 1014 10 16.09344 0.001 0.001
6:52 pm 18:52 Cloudy 69 20.6 60 15.6 73 73 NNW 8 13 29.94 1014 10 16.09344 0.001 0.001
7:52 pm 19:52 Cloudy with Light Rain 68 20 60 15.6 76 76 NNW 7 11 29.94 1014 10 16.09344 0.001 0.001
8:52 pm 20:52 Mostly Cloudy 69 20.6 60 15.6 73 73 NW 8 13 29.94 1014 10 16.09344 0.001 0.001
9:52 pm 21:52 Partly Cloudy 67 19.4 60 15.6 79 79 NNW 7 11 29.97 1015 10 16.09344 0.001 0.001
10:52 pm 22:52 Partly Cloudy 66 18.9 60 15.6 81 81 NNE 5 7 30 1016 10 16.09344 0 0
11:52 pm 23:52 Mostly Cloudy 65 18.3 59 15 81 81 NW 14 22 30 1016 10 16.09344 0 0

Powered by AerisWeather